This is the latest recevied weather packets stored in our database for station/object KC5L-7. If no packets are shown the sender has not sent any weather packets the latest 10 day(s).
| Time | Temp. | Humidity | Pressure | Rain* | Wind** | Luminosity | Snow |
|---|---|---|---|---|---|---|---|
| 1777827682 | 22.78° C | 39% | 1021 hPa | 0 mm | - | - | - |
| 1777827083 | 22.22° C | 39% | 1021.1 hPa | 0 mm | - | - | - |
| 1777826483 | 22.22° C | 41% | 1021 hPa | 0 mm | - | - | - |
| 1777825882 | 22.22° C | 41% | 1021.2 hPa | 0 mm | - | - | - |
| 1777825283 | 21.67° C | 43% | 1021.3 hPa | 0 mm | - | - | - |
| 1777824082 | 21.67° C | 45% | 1021.6 hPa | 0 mm | - | - | - |
| 1777823482 | 21.11° C | 45% | 1021.7 hPa | 0 mm | - | - | - |
| 1777822882 | 21.11° C | 48% | 1021.7 hPa | 0 mm | - | - | - |
| 1777822282 | 20.56° C | 49% | 1021.8 hPa | 0 mm | - | - | - |
| 1777821683 | 20.56° C | 50% | 1021.9 hPa | 0 mm | - | - | - |
| 1777821082 | 20° C | 52% | 1021.9 hPa | 0 mm | - | - | - |
| 1777820482 | 20° C | 54% | 1021.9 hPa | 0 mm | - | - | - |
| 1777818682 | 17.78° C | 69% | 1021.9 hPa | 0 mm | - | - | - |
| 1777816882 | 15° C | 78% | 1022.2 hPa | 0 mm | - | - | - |
| 1777816282 | 14.44° C | 80% | 1022.1 hPa | 0 mm | - | - | - |
| 1777815682 | 13.89° C | 82% | 1022 hPa | 0 mm | - | - | - |
| 1777814483 | 12.78° C | 83% | 1022.1 hPa | 0 mm | - | - | - |
| 1777813882 | 12.78° C | 83% | 1022.2 hPa | 0 mm | - | - | - |
| 1777813282 | 12.22° C | 84% | 1022.2 hPa | 0 mm | - | - | - |
| 1777812682 | 11.67° C | 85% | 1022.1 hPa | 0 mm | - | - | - |
| 1777812082 | 11.67° C | 85% | 1022 hPa | 0 mm | - | - | - |
| 1777811482 | 11.67° C | 85% | 1022 hPa | 0 mm | - | - | - |
| 1777810882 | 11.11° C | 85% | 1022 hPa | 0 mm | - | - | - |
| 1777809682 | 11.11° C | 85% | 1021.9 hPa | 0 mm | - | - | - |
| 1777809082 | 11.11° C | 85% | 1021.8 hPa | 0 mm | - | - | - |
* Rain latest hour (hover to see other rain measurements)
** Current wind speed in m/s (hover to see current wind gust speed)